Time;durP1;ratioP1;P1;durP2;ratioP2;P2;SDS_P1;SDS_P2;PMS_P1;PMS_P2;Temp;Humidity;BMP_temperature;BMP_pressure;BME280_temperature;BME280_humidity;BME280_pressure;Samples;Min_cycle;Max_cycle;Signal;HPM_P1;HPM_P2
2023/07/17 00:00:15;;;;;;;;;4.33;1.67;;;;;22.03;44.03;101303.81;5092203;28;45169;-66
2023/07/17 00:02:42;;;;;;;;;3.00;1.33;;;;;21.95;44.47;101306.59;5092373;28;44952;-67
2023/07/17 00:05:09;;;;;;;;;2.33;1.00;;;;;21.86;44.43;101302.19;5093402;28;45105;-68
2023/07/17 00:07:35;;;;;;;;;1.00;0.00;;;;;21.83;44.52;101301.31;5093078;28;45181;-68
2023/07/17 00:10:01;;;;;;;;;1.33;1.33;;;;;21.83;44.60;101296.78;5092407;28;45268;-67
2023/07/17 00:12:27;;;;;;;;;1.00;1.00;;;;;21.87;44.71;101309.41;5086308;28;45096;-67
2023/07/17 00:14:52;;;;;;;;;1.00;1.00;;;;;21.84;44.63;101290.41;5088446;27;45334;-68
2023/07/17 00:17:17;;;;;;;;;2.00;2.00;;;;;21.94;44.33;101299.34;5092541;28;45060;-68
2023/07/17 00:19:53;;;;;;;;;1.00;1.00;;;;;21.94;44.45;101293.91;5088487;28;45600;-67
2023/07/17 00:22:19;;;;;;;;;2.33;2.00;;;;;21.94;44.41;101293.91;5093083;28;45133;-67
2023/07/17 00:24:44;;;;;;;;;2.00;2.00;;;;;21.95;44.52;101294.84;5092811;28;45038;-68
2023/07/17 00:27:09;;;;;;;;;1.67;1.67;;;;;21.92;44.33;101289.44;5090299;28;45062;-68
2023/07/17 00:29:35;;;;;;;;;1.00;1.00;;;;;21.96;44.45;101294.81;5064795;28;46535;-68
2023/07/17 00:32:00;;;;;;;;;3.00;1.33;;;;;21.93;44.49;101285.78;5090566;28;45075;-68
2023/07/17 00:34:26;;;;;;;;;2.00;2.00;;;;;21.97;43.92;101285.72;5085110;28;45066;-68
2023/07/17 00:36:52;;;;;;;;;3.00;3.00;;;;;22.02;44.13;101296.56;5090377;28;45169;-68
2023/07/17 00:39:19;;;;;;;;;4.67;2.00;;;;;21.96;44.53;101285.72;5091188;28;46462;-68
2023/07/17 00:41:45;;;;;;;;;2.00;2.00;;;;;21.99;44.80;101307.47;5089910;28;45089;-68
2023/07/17 00:44:10;;;;;;;;;2.00;2.00;;;;;21.90;45.12;101301.22;5092734;28;45119;-69
2023/07/17 00:46:36;;;;;;;;;3.33;3.33;;;;;21.89;45.24;101306.66;5092570;28;45216;-68
2023/07/17 00:49:03;;;;;;;;;3.00;2.00;;;;;21.84;45.67;101304.00;5088125;28;45874;-67
2023/07/17 00:51:30;;;;;;;;;4.00;2.00;;;;;21.75;45.26;101301.41;5090648;28;45370;-68
2023/07/17 00:53:56;;;;;;;;;4.33;3.00;;;;;21.76;45.64;101302.28;5092444;28;45120;-68
2023/07/17 00:56:22;;;;;;;;;2.00;2.00;;;;;21.76;45.44;101300.47;5092528;28;45005;-68
2023/07/17 00:58:47;;;;;;;;;2.00;2.00;;;;;21.76;45.91;101308.63;5073492;28;45600;-68
2023/07/17 01:01:13;;;;;;;;;1.00;1.00;;;;;21.71;45.85;101303.25;5072651;28;45108;-70
2023/07/17 01:03:39;;;;;;;;;1.67;1.67;;;;;21.73;45.42;101305.97;5092134;28;45597;-67
2023/07/17 01:06:04;;;;;;;;;5.00;3.00;;;;;21.71;45.85;101313.22;5085828;28;45138;-68
2023/07/17 01:08:31;;;;;;;;;3.00;1.00;;;;;21.58;45.69;101298.88;5092256;28;45688;-68
2023/07/17 01:10:56;;;;;;;;;0.67;0.67;;;;;21.58;45.80;101301.59;5092084;28;44918;-68
2023/07/17 01:13:22;;;;;;;;;1.00;1.00;;;;;21.67;46.14;101316.91;5092318;28;45071;-68
2023/07/17 01:15:47;;;;;;;;;3.00;3.00;;;;;21.62;45.69;101308.78;5074445;28;44901;-67
2023/07/17 01:18:13;;;;;;;;;10.33;10.33;;;;;21.67;45.79;101316.91;5090227;28;45182;-68
2023/07/17 01:20:38;;;;;;;;;2.33;2.33;;;;;21.71;45.75;101322.31;5087707;28;45035;-68
2023/07/17 01:23:04;;;;;;;;;2.33;2.00;;;;;21.70;46.33;101316.88;5087654;28;45185;-67
2023/07/17 01:25:30;;;;;;;;;2.00;1.33;;;;;21.68;46.31;101316.00;5091342;28;44886;-69
2023/07/17 01:27:55;;;;;;;;;2.67;1.67;;;;;21.58;45.55;101311.53;5091113;28;45211;-67
2023/07/17 01:30:21;;;;;;;;;1.00;1.00;;;;;21.56;45.10;101317.00;5071485;28;45370;-69
2023/07/17 01:32:46;;;;;;;;;4.00;3.67;;;;;21.52;45.60;101315.25;5091914;28;45112;-68
2023/07/17 01:35:12;;;;;;;;;4.00;2.33;;;;;21.48;46.13;101308.94;5091949;28;45007;-67
2023/07/17 01:37:37;;;;;;;;;3.67;2.00;;;;;21.51;45.96;101314.34;5090737;28;45630;-67
2023/07/17 01:40:04;;;;;;;;;3.00;2.00;;;;;21.47;46.17;101315.28;5061244;28;45117;-68
2023/07/17 01:42:29;;;;;;;;;2.00;2.00;;;;;21.49;45.93;101320.72;5089980;27;45179;-69
2023/07/17 01:44:54;;;;;;;;;1.00;1.00;;;;;21.45;45.98;101325.25;5091059;28;45144;-68
2023/07/17 01:47:20;;;;;;;;;1.33;1.33;;;;;21.45;46.11;101332.47;5090998;28;55535;-68
2023/07/17 01:49:45;;;;;;;;;1.00;1.00;;;;;21.30;45.92;101306.34;5092225;28;45246;-69
2023/07/17 01:52:12;;;;;;;;;1.00;1.00;;;;;21.39;45.71;101327.13;5092065;28;45155;-68
2023/07/17 01:54:38;;;;;;;;;3.00;1.00;;;;;21.40;46.08;101328.91;5087352;28;45868;-68
2023/07/17 01:57:03;;;;;;;;;3.00;2.67;;;;;21.37;45.70;101318.97;5087264;28;45667;-68
2023/07/17 01:59:28;;;;;;;;;1.00;1.00;;;;;21.38;45.45;101330.75;5088330;28;45267;-68
2023/07/17 02:01:54;;;;;;;;;1.33;1.33;;;;;21.30;45.70;101323.56;5089054;28;48285;-67
2023/07/17 02:04:19;;;;;;;;;1.00;1.00;;;;;21.25;45.61;101314.56;5090035;28;44912;-68
2023/07/17 02:06:44;;;;;;;;;1.67;1.67;;;;;21.22;46.01;101308.22;5090540;28;45665;-68
2023/07/17 02:09:10;;;;;;;;;1.00;1.00;;;;;21.27;45.72;101328.13;5089871;28;45142;-68
2023/07/17 02:11:35;;;;;;;;;3.67;2.00;;;;;21.21;46.05;101328.19;5063510;28;45191;-68
2023/07/17 02:14:02;;;;;;;;;3.67;1.00;;;;;21.21;45.77;101325.47;5080978;28;55014;-68
2023/07/17 02:16:27;;;;;;;;;2.00;2.00;;;;;21.19;45.94;101324.56;5090208;28;45361;-67
2023/07/17 02:18:52;;;;;;;;;1.00;1.00;;;;;21.13;46.22;101323.69;5072559;28;45065;-68
2023/07/17 02:21:18;;;;;;;;;2.33;2.33;;;;;21.13;46.76;101331.84;5091842;28;45228;-67
2023/07/17 02:23:44;;;;;;;;;2.33;1.00;;;;;21.13;46.92;101333.66;5090596;28;45119;-68
2023/07/17 02:26:11;;;;;;;;;2.00;1.00;;;;;21.10;47.03;101328.25;5091218;28;45032;-67
2023/07/17 02:28:36;;;;;;;;;6.33;1.00;;;;;21.06;47.18;101329.19;5089458;28;45199;-69
2023/07/17 02:31:02;;;;;;;;;2.33;2.00;;;;;21.04;47.57;101331.03;5081722;28;45266;-68
2023/07/17 02:33:27;;;;;;;;;3.00;1.00;;;;;21.03;47.96;101335.53;5068717;28;45426;-67
2023/07/17 02:35:52;;;;;;;;;2.00;2.00;;;;;20.86;48.05;101316.66;5069218;28;62827;-67
2023/07/17 02:38:18;;;;;;;;;2.67;1.00;;;;;20.96;48.40;101339.22;5072514;28;44909;-67
2023/07/17 02:40:43;;;;;;;;;2.00;2.00;;;;;20.92;48.42;101334.72;5074874;28;45035;-68
2023/07/17 02:43:09;;;;;;;;;1.33;1.33;;;;;20.88;48.38;101335.66;5074862;28;45252;-69
2023/07/17 02:45:36;;;;;;;;;2.00;2.00;;;;;20.86;48.61;101334.78;5068992;28;46124;-67
2023/07/17 02:48:01;;;;;;;;;1.67;1.67;;;;;20.83;48.60;101334.81;5072926;28;45021;-69
2023/07/17 02:50:27;;;;;;;;;1.00;1.00;;;;;20.84;48.61;101339.28;5074222;28;45185;-66
2023/07/17 02:52:52;;;;;;;;;2.00;1.67;;;;;20.83;48.62;101343.84;5074141;28;45295;-67
2023/07/17 02:55:19;;;;;;;;;2.00;2.00;;;;;20.72;48.41;101332.13;5073356;28;56418;-68
2023/07/17 02:57:44;;;;;;;;;3.33;3.33;;;;;20.77;48.69;101339.38;5074525;28;45074;-68
2023/07/17 03:00:14;;;;;;;;;2.00;1.00;;;;;20.73;48.45;101333.97;5073386;28;45368;-68
2023/07/17 03:02:42;;;;;;;;;3.00;3.00;;;;;20.79;48.22;101348.41;5074387;28;45098;-67
2023/07/17 03:05:10;;;;;;;;;2.00;2.00;;;;;20.78;48.15;101346.56;5069837;28;46589;-67
2023/07/17 03:07:38;;;;;;;;;1.00;1.00;;;;;20.73;48.15;101345.72;5071073;28;45083;-68
2023/07/17 03:10:04;;;;;;;;;1.33;1.33;;;;;20.77;48.19;101349.31;5070169;28;45297;-67
2023/07/17 03:12:30;;;;;;;;;5.67;4.67;;;;;20.78;48.31;101351.13;5073418;28;44960;-69
2023/07/17 03:14:55;;;;;;;;;2.00;2.00;;;;;20.77;48.17;101341.16;5070692;28;52701;-68
2023/07/17 03:17:20;;;;;;;;;2.67;1.67;;;;;20.83;48.13;101346.56;5073408;28;45083;-68
2023/07/17 03:19:45;;;;;;;;;1.00;1.00;;;;;20.79;47.92;101337.53;5069052;28;44677;-68
2023/07/17 03:22:11;;;;;;;;;1.00;1.00;;;;;20.84;48.09;101344.72;5071960;28;44937;-68
2023/07/17 03:24:36;;;;;;;;;1.00;1.00;;;;;20.84;47.84;101358.31;5073437;28;46030;-69
2023/07/17 03:27:03;;;;;;;;;1.33;1.33;;;;;20.81;48.11;101359.25;5071917;28;45462;-67
2023/07/17 03:29:28;;;;;;;;;1.00;1.00;;;;;20.76;48.17;101345.69;5067177;28;45001;-67
2023/07/17 03:31:54;;;;;;;;;1.00;1.00;;;;;20.73;48.29;101362.00;5073214;28;45110;-67
2023/07/17 03:34:19;;;;;;;;;4.33;3.00;;;;;20.70;48.09;101356.59;5087430;28;45861;-68
2023/07/17 03:36:45;;;;;;;;;3.00;2.67;;;;;20.67;47.99;101364.75;5090412;28;45134;-66
2023/07/17 03:39:11;;;;;;;;;1.00;1.00;;;;;20.59;47.67;101363.84;5093516;27;45082;-68
2023/07/17 03:41:37;;;;;;;;;3.00;1.00;;;;;20.54;47.87;101366.63;5093578;28;45089;-68
2023/07/17 03:44:02;;;;;;;;;1.00;1.00;;;;;20.52;48.03;101370.22;5071847;28;46408;-67
2023/07/17 03:46:30;;;;;;;;;1.33;1.33;;;;;20.49;48.04;101378.38;5069467;28;44909;-68
2023/07/17 03:48:55;;;;;;;;;4.67;2.67;;;;;20.44;47.97;101372.97;5092939;27;45135;-67
2023/07/17 03:51:21;;;;;;;;;1.33;1.33;;;;;20.44;48.16;101378.41;5093281;28;44924;-68
2023/07/17 03:53:47;;;;;;;;;2.00;1.00;;;;;20.43;48.21;101382.94;5088679;28;45476;-68
2023/07/17 03:56:12;;;;;;;;;1.00;1.00;;;;;20.30;48.14;101362.19;5086326;28;44991;-68
2023/07/17 03:58:37;;;;;;;;;1.33;1.33;;;;;20.34;48.11;101373.94;5088942;28;45428;-68
2023/07/17 04:01:02;;;;;;;;;0.67;0.67;;;;;20.32;47.83;101381.19;5089625;27;45244;-68
2023/07/17 04:03:28;;;;;;;;;2.00;2.00;;;;;20.29;48.01;101386.63;5093521;28;45474;-68
2023/07/17 04:05:53;;;;;;;;;1.33;0.67;;;;;20.27;47.98;101392.03;5093094;28;60581;-68
2023/07/17 04:08:18;;;;;;;;;1.00;1.00;;;;;20.25;48.00;101388.44;5093784;28;45006;-67
2023/07/17 04:10:44;;;;;;;;;1.67;1.00;;;;;20.21;47.88;101383.91;5091906;28;45186;-67
2023/07/17 04:13:09;;;;;;;;;1.67;1.67;;;;;20.18;48.28;101389.38;5089523;28;45999;-68
2023/07/17 04:15:36;;;;;;;;;1.00;1.00;;;;;20.15;48.31;101393.00;5093189;28;45167;-68
2023/07/17 04:18:01;;;;;;;;;1.00;1.00;;;;;20.15;48.44;101392.09;5093278;28;45328;-67
2023/07/17 04:20:26;;;;;;;;;2.00;2.00;;;;;20.12;48.76;101386.69;5093031;28;45322;-68
2023/07/17 04:22:52;;;;;;;;;3.67;2.33;;;;;20.12;48.82;101383.97;5092690;28;45610;-68
2023/07/17 04:25:17;;;;;;;;;3.33;2.67;;;;;20.13;49.03;101388.47;5090573;28;45380;-69
2023/07/17 04:27:43;;;;;;;;;3.67;1.00;;;;;20.01;49.29;101378.56;5090610;27;45155;-68
2023/07/17 04:30:09;;;;;;;;;6.00;2.00;;;;;20.03;49.27;101393.94;5085626;28;45766;-67
2023/07/17 04:32:34;;;;;;;;;1.00;1.00;;;;;19.84;49.48;101365.03;5090459;28;45173;-67
2023/07/17 04:34:59;;;;;;;;;3.00;1.00;;;;;20.02;49.54;101397.53;5071426;28;45323;-68
2023/07/17 04:37:25;;;;;;;;;1.00;1.00;;;;;20.01;49.67;101397.53;5092846;28;45007;-67
2023/07/17 04:39:50;;;;;;;;;2.00;2.00;;;;;19.99;49.91;101404.78;5089574;28;44890;-66
2023/07/17 04:42:15;;;;;;;;;1.00;1.00;;;;;19.96;49.65;101407.50;5086120;28;45372;-68
2023/07/17 04:44:43;;;;;;;;;2.00;0.00;;;;;19.85;50.03;101394.88;5089039;28;45716;-67
2023/07/17 04:47:09;;;;;;;;;1.00;0.33;;;;;19.87;49.93;101411.13;5084723;28;45156;-69
2023/07/17 04:49:35;;;;;;;;;0.00;0.00;;;;;19.71;50.08;101396.66;5083687;28;45075;-69
2023/07/17 04:52:00;;;;;;;;;1.00;1.00;;;;;19.69;50.45;101398.47;5092245;28;45419;-68
2023/07/17 04:54:26;;;;;;;;;4.00;2.00;;;;;19.71;50.37;101407.50;5085798;28;46421;-69
2023/07/17 04:56:51;;;;;;;;;3.33;1.33;;;;;19.67;50.54;101403.88;5089651;28;45431;-67
2023/07/17 04:59:16;;;;;;;;;2.00;0.67;;;;;19.72;50.80;101411.13;5094293;28;45456;-69
2023/07/17 05:01:42;;;;;;;;;1.00;1.00;;;;;19.67;50.80;101403.88;5088292;27;45308;-68
2023/07/17 05:04:07;;;;;;;;;1.00;1.00;;;;;19.69;50.79;101415.63;5090422;28;44860;-68
2023/07/17 05:06:33;;;;;;;;;0.00;0.00;;;;;19.69;50.88;101410.19;5092149;28;45122;-68
2023/07/17 05:08:58;;;;;;;;;2.00;2.00;;;;;19.73;50.89;101429.19;5069122;28;45215;-68
2023/07/17 05:11:23;;;;;;;;;1.67;0.33;;;;;19.70;51.05;101424.69;5087304;28;46677;-68
2023/07/17 05:13:49;;;;;;;;;1.00;1.00;;;;;19.65;50.97;101413.84;5090169;28;45014;-68
2023/07/17 05:16:15;;;;;;;;;1.00;1.00;;;;;19.67;50.68;101417.44;5092953;28;45059;-68
2023/07/17 05:18:40;;;;;;;;;0.67;0.00;;;;;19.67;50.77;101422.88;5073735;28;45243;-68
2023/07/17 05:21:05;;;;;;;;;1.67;1.33;;;;;19.66;50.98;101422.88;5089337;28;55192;-68
2023/07/17 05:23:31;;;;;;;;;1.00;1.00;;;;;19.68;50.95;101435.53;5090735;28;45132;-67
2023/07/17 05:25:58;;;;;;;;;1.00;1.00;;;;;19.70;50.98;101428.28;5091926;28;45587;-68
2023/07/17 05:28:24;;;;;;;;;1.00;1.00;;;;;19.66;50.84;101415.63;5091077;28;45114;-68
2023/07/17 05:30:53;;;;;;;;;0.67;0.00;;;;;19.70;50.68;101427.41;5086029;28;45914;-69
2023/07/17 05:33:20;;;;;;;;;3.00;1.00;;;;;19.75;50.74;101428.31;5088448;28;45569;-69
2023/07/17 05:35:45;;;;;;;;;2.33;2.00;;;;;19.75;50.81;101435.50;5090212;28;44964;-68
2023/07/17 05:38:11;;;;;;;;;1.00;1.00;;;;;19.75;50.91;101435.50;5071812;28;45237;-68
2023/07/17 05:40:39;;;;;;;;;2.00;1.00;;;;;19.65;50.76;101421.03;5089589;28;45645;-68
2023/07/17 05:43:04;;;;;;;;;1.33;1.00;;;;;19.74;50.57;101433.72;5090133;28;45083;-68
2023/07/17 05:45:29;;;;;;;;;2.67;2.67;;;;;19.69;50.69;101428.28;5088956;28;45157;-69
2023/07/17 05:47:55;;;;;;;;;1.00;1.00;;;;;19.75;50.69;101440.94;5088412;28;45379;-67
2023/07/17 05:50:20;;;;;;;;;2.33;2.33;;;;;19.74;50.76;101439.13;5088411;28;45358;-69
2023/07/17 05:52:45;;;;;;;;;4.00;1.00;;;;;19.76;50.83;101443.66;5084386;28;45413;-68
2023/07/17 05:55:11;;;;;;;;;3.00;1.00;;;;;19.73;50.82;101434.59;5089305;28;45440;-68
2023/07/17 05:57:36;;;;;;;;;1.00;1.00;;;;;19.82;51.05;101445.50;5089181;28;45376;-67
2023/07/17 06:00:03;;;;;;;;;1.00;1.00;;;;;19.80;50.75;101442.78;5087632;28;45742;-69
2023/07/17 06:02:29;;;;;;;;;1.00;1.00;;;;;19.75;51.10;101438.22;5071316;28;45136;-68
2023/07/17 06:04:54;;;;;;;;;1.67;1.67;;;;;19.80;51.09;101455.41;5089531;28;45144;-68
2023/07/17 06:07:19;;;;;;;;;4.33;1.00;;;;;19.87;50.83;101457.25;5073120;28;44911;-68
2023/07/17 06:09:45;;;;;;;;;4.00;2.00;;;;;19.82;50.65;101457.22;5071310;28;47792;-69
2023/07/17 06:12:11;;;;;;;;;4.00;4.00;;;;;19.95;50.83;101473.50;5090602;28;45162;-69
2023/07/17 06:14:36;;;;;;;;;3.67;3.67;;;;;19.98;50.75;101470.78;5094280;28;45062;-68
2023/07/17 06:17:02;;;;;;;;;6.33;4.00;;;;;19.96;50.75;101468.06;5090904;28;44927;-71
2023/07/17 06:19:28;;;;;;;;;5.67;2.00;;;;;20.00;50.59;101469.88;5091836;28;46429;-69
2023/07/17 06:21:53;;;;;;;;;4.00;3.00;;;;;20.03;50.54;101469.00;5092627;28;45175;-69
2023/07/17 06:24:19;;;;;;;;;4.67;3.00;;;;;20.07;50.40;101485.22;5092419;28;45137;-68
2023/07/17 06:26:44;;;;;;;;;3.33;3.00;;;;;20.15;50.19;101478.91;5092348;28;45187;-69
2023/07/17 06:29:10;;;;;;;;;1.00;1.00;;;;;20.20;50.05;101475.28;5092597;28;46617;-68
2023/07/17 06:31:37;;;;;;;;;6.67;2.00;;;;;20.25;49.62;101487.00;5093354;28;45089;-68
2023/07/17 06:34:02;;;;;;;;;3.00;1.67;;;;;20.24;49.86;101468.03;5074891;28;45275;-69
2023/07/17 06:36:28;;;;;;;;;0.33;0.33;;;;;20.23;49.61;101461.69;5093548;28;45245;-69
2023/07/17 06:38:53;;;;;;;;;2.00;2.00;;;;;20.37;49.18;101474.34;5092522;28;46021;-68
2023/07/17 06:41:19;;;;;;;;;1.67;1.67;;;;;20.38;49.17;101471.63;5072847;28;45157;-70
2023/07/17 06:43:44;;;;;;;;;1.00;1.00;;;;;20.22;48.99;101448.13;5091200;28;45147;-67
2023/07/17 06:46:10;;;;;;;;;2.00;2.00;;;;;20.55;49.02;101470.66;5091328;28;45182;-66
2023/07/17 06:48:35;;;;;;;;;3.00;2.33;;;;;20.58;48.87;101462.50;5089882;28;45563;-67
2023/07/17 06:51:01;;;;;;;;;3.00;0.67;;;;;20.69;48.51;101479.72;5070760;28;45297;-68
2023/07/17 06:53:26;;;;;;;;;4.67;3.67;;;;;20.77;48.21;101485.09;5073008;28;45265;-72
2023/07/17 06:55:59;;;;;;;;;5.67;4.00;;;;;20.85;48.05;101480.53;5086094;28;46190;-72
2023/07/17 06:58:25;;;;;;;;;2.33;2.00;;;;;20.84;47.81;101481.47;5089509;28;45950;-72
2023/07/17 07:01:08;;;;;;;;;3.67;2.00;;;;;20.90;47.87;101485.94;5082142;28;45414;-72
2023/07/17 07:03:34;;;;;;;;;3.00;2.00;;;;;20.87;47.57;101481.44;5088570;28;45359;-71
2023/07/17 07:06:01;;;;;;;;;4.33;3.00;;;;;20.94;47.17;101485.94;5091604;28;45132;-71
2023/07/17 07:08:28;;;;;;;;;1.33;1.33;;;;;20.99;47.17;101491.34;5091743;28;45722;-71
2023/07/17 07:10:55;;;;;;;;;2.00;2.00;;;;;21.03;46.66;101495.84;5072579;28;45093;-73
2023/07/17 07:13:21;;;;;;;;;2.00;0.00;;;;;21.06;47.08;101500.38;5087280;28;45542;-71
2023/07/17 07:15:47;;;;;;;;;2.00;2.00;;;;;21.14;46.86;101503.94;5088430;28;45511;-71
2023/07/17 07:18:13;;;;;;;;;4.00;1.00;;;;;21.21;46.64;101496.66;5092344;28;45198;-72
2023/07/17 07:20:39;;;;;;;;;4.00;1.67;;;;;21.24;46.24;101485.78;5090475;28;44933;-71
2023/07/17 07:23:04;;;;;;;;;2.00;2.00;;;;;21.35;45.21;101501.09;5067134;28;45395;-71
2023/07/17 07:25:29;;;;;;;;;1.33;1.33;;;;;21.37;45.47;101497.50;5090177;28;45121;-73
2023/07/17 07:27:55;;;;;;;;;2.00;2.00;;;;;21.37;44.87;101501.09;5091791;28;46051;-71
2023/07/17 07:30:20;;;;;;;;;2.00;2.00;;;;;21.28;44.47;101483.03;5088571;27;45279;-72
2023/07/17 07:32:46;;;;;;;;;2.67;2.67;;;;;21.29;44.56;101489.38;5093242;28;44925;-71
2023/07/17 07:35:12;;;;;;;;;1.00;1.00;;;;;21.46;44.32;101500.13;5093373;28;45173;-71
2023/07/17 07:37:39;;;;;;;;;3.33;2.00;;;;;21.43;44.13;101487.47;5090841;28;45728;-72
2023/07/17 07:40:06;;;;;;;;;2.00;1.00;;;;;21.54;44.11;101501.91;5089379;28;45332;-71
2023/07/17 07:42:32;;;;;;;;;1.00;1.00;;;;;21.72;43.89;101506.31;5072533;28;45207;-70
2023/07/17 07:44:58;;;;;;;;;1.33;1.33;;;;;21.71;43.67;101482.75;5074856;28;45375;-71
2023/07/17 07:47:23;;;;;;;;;4.67;3.67;;;;;21.96;43.20;101515.22;5093703;28;45109;-70
2023/07/17 07:49:50;;;;;;;;;2.00;2.00;;;;;21.93;42.77;101515.22;5091925;28;45089;-72
2023/07/17 07:52:15;;;;;;;;;1.33;1.33;;;;;22.00;42.72;101519.69;5058261;28;45402;-72
2023/07/17 07:54:42;;;;;;;;;4.00;2.33;;;;;22.02;42.41;101514.25;5075521;28;45475;-71
2023/07/17 07:57:08;;;;;;;;;2.00;2.00;;;;;22.03;42.35;101513.34;5080868;28;45700;-71
2023/07/17 07:59:33;;;;;;;;;4.00;1.67;;;;;22.02;42.28;101525.13;5092767;28;45126;-71
2023/07/17 08:01:58;;;;;;;;;1.33;1.33;;;;;21.95;42.00;101518.81;5093355;28;45024;-71
2023/07/17 08:04:24;;;;;;;;;0.33;0.00;;;;;21.97;41.75;101526.97;5093682;28;44993;-71
2023/07/17 08:06:49;;;;;;;;;3.67;3.67;;;;;22.00;41.37;101525.13;5073625;28;47802;-71
2023/07/17 08:09:14;;;;;;;;;3.00;2.00;;;;;22.03;41.65;101516.94;5093443;28;45230;-71
2023/07/17 08:11:40;;;;;;;;;2.00;2.00;;;;;22.14;41.70;101519.59;5093157;28;45021;-71
2023/07/17 08:14:05;;;;;;;;;2.00;2.00;;;;;22.16;41.67;101524.97;5074842;28;45441;-71
2023/07/17 08:16:30;;;;;;;;;3.00;3.00;;;;;22.20;41.40;101518.63;5089863;28;45686;-71
2023/07/17 08:18:56;;;;;;;;;2.00;2.00;;;;;22.20;41.01;101514.06;5091190;28;45110;-70
2023/07/17 08:21:21;;;;;;;;;1.00;1.00;;;;;22.36;40.95;101531.19;5088788;28;45486;-71
2023/07/17 08:23:47;;;;;;;;;1.67;1.67;;;;;22.46;40.80;101526.56;5091710;28;45221;-71
2023/07/17 08:26:12;;;;;;;;;3.67;1.00;;;;;22.52;40.27;101521.06;5087580;28;45479;-72
2023/07/17 08:28:37;;;;;;;;;6.00;1.67;;;;;22.58;40.30;101537.31;5091575;28;44978;-71
2023/07/17 08:31:03;;;;;;;;;2.00;1.00;;;;;22.58;40.42;101531.84;5088315;28;45142;-71
2023/07/17 08:33:29;;;;;;;;;3.67;1.67;;;;;22.56;40.35;101540.97;5072589;28;45103;-71
2023/07/17 08:35:54;;;;;;;;;4.67;3.00;;;;;22.64;40.40;101533.63;5090422;27;45180;-71
2023/07/17 08:38:20;;;;;;;;;1.33;1.00;;;;;22.56;39.82;101494.69;5089119;28;45541;-71
2023/07/17 08:40:50;;;;;;;;;2.67;1.00;;;;;22.85;39.57;101524.31;5085374;28;46010;-71
2023/07/17 08:43:16;;;;;;;;;3.00;2.00;;;;;22.96;39.80;101533.22;5067013;28;45485;-71
2023/07/17 08:45:42;;;;;;;;;3.67;2.33;;;;;22.82;39.04;101487.09;5071578;28;45999;-71
2023/07/17 08:48:08;;;;;;;;;4.00;1.67;;;;;23.07;39.10;101534.97;5090621;28;45489;-72
2023/07/17 08:50:34;;;;;;;;;2.33;1.00;;;;;23.05;39.35;101531.31;5090445;28;45374;-72
2023/07/17 08:53:00;;;;;;;;;1.00;1.00;;;;;23.11;39.29;101537.63;5090276;28;45465;-73
2023/07/17 08:55:31;;;;;;;;;2.00;1.00;;;;;23.25;39.25;101531.09;5089172;28;45366;-72
2023/07/17 08:58:00;;;;;;;;;3.67;2.00;;;;;23.33;39.27;101532.78;5083163;28;45231;-71
2023/07/17 09:00:26;;;;;;;;;4.00;4.00;;;;;23.35;38.79;101530.03;5071135;28;45274;-70
2023/07/17 09:02:52;;;;;;;;;3.33;3.33;;;;;23.48;38.63;101539.84;5089992;28;45289;-71
2023/07/17 09:05:17;;;;;;;;;2.33;1.33;;;;;23.55;38.71;101537.94;5089890;28;45552;-71
2023/07/17 09:07:43;;;;;;;;;2.67;2.67;;;;;23.49;38.57;101524.38;5089320;28;45293;-70
2023/07/17 09:10:23;;;;;;;;;2.00;2.00;;;;;23.58;38.04;101540.63;5089392;28;45145;-70
2023/07/17 09:12:54;;;;;;;;;5.33;2.67;;;;;23.58;37.99;101524.25;5088541;28;45167;-71
2023/07/17 09:15:20;;;;;;;;;3.00;3.00;;;;;23.71;37.74;101533.16;5091130;28;45485;-72
2023/07/17 09:17:46;;;;;;;;;1.67;1.67;;;;;23.69;37.80;101525.00;5092215;28;45183;-71
2023/07/17 09:20:13;;;;;;;;;2.00;2.00;;;;;23.76;38.02;101536.72;5092577;28;45469;-71
2023/07/17 09:22:39;;;;;;;;;2.00;2.00;;;;;23.78;37.91;101533.97;5091947;28;45169;-71
2023/07/17 09:25:06;;;;;;;;;2.67;1.00;;;;;23.80;37.34;101527.53;5090788;28;45390;-70
2023/07/17 09:27:45;;;;;;;;;4.00;2.00;;;;;23.96;37.56;101535.53;5069034;28;45284;-70
2023/07/17 09:30:12;;;;;;;;;1.67;1.67;;;;;24.11;36.78;101540.72;5089235;28;45016;-71
2023/07/17 09:32:38;;;;;;;;;3.00;2.00;;;;;24.22;36.92;101533.22;5089757;28;45576;-71
2023/07/17 09:35:05;;;;;;;;;4.00;0.33;;;;;24.25;36.60;101541.38;5089935;28;45906;-71
2023/07/17 09:37:32;;;;;;;;;1.00;1.00;;;;;24.28;35.88;101537.66;5090535;28;45455;-71
2023/07/17 09:40:07;;;;;;;;;2.33;1.67;;;;;24.29;35.50;101534.91;5086075;28;45144;-70
2023/07/17 09:42:38;;;;;;;;;1.33;1.33;;;;;24.37;35.47;101532.06;5091186;28;44914;-71
2023/07/17 09:45:04;;;;;;;;;6.00;3.00;;;;;24.41;35.64;101516.50;5090008;28;47292;-71
2023/07/17 09:47:33;;;;;;;;;1.00;1.00;;;;;24.46;35.26;101512.75;5094917;27;45134;-72
2023/07/17 09:50:00;;;;;;;;;1.33;1.33;;;;;24.55;35.06;101530.84;5097984;28;45269;-70
2023/07/17 09:52:28;;;;;;;;;2.00;2.00;;;;;24.55;35.18;101527.16;5096906;28;45205;-71
2023/07/17 09:54:54;;;;;;;;;2.00;1.00;;;;;24.49;35.59;101528.19;5097150;28;45773;-72
2023/07/17 09:57:28;;;;;;;;;2.00;0.67;;;;;24.46;35.38;101533.69;5097691;28;44944;-72
2023/07/17 10:00:11;;;;;;;;;1.33;1.33;;;;;24.53;35.16;101529.03;5078639;28;45288;-72
2023/07/17 10:02:40;;;;;;;;;3.67;2.00;;;;;24.61;34.94;101522.50;5090658;28;45405;-72
2023/07/17 10:05:06;;;;;;;;;3.00;1.00;;;;;24.67;34.73;101521.50;5095535;28;45506;-71
2023/07/17 10:07:42;;;;;;;;;2.00;2.00;;;;;24.71;34.05;101512.28;5076662;28;45205;-71
2023/07/17 10:10:09;;;;;;;;;3.00;1.33;;;;;24.67;34.81;101534.28;5095559;28;44928;-70
2023/07/17 10:12:37;;;;;;;;;2.00;1.00;;;;;24.65;34.91;101521.53;5094888;28;45118;-72
2023/07/17 10:15:04;;;;;;;;;1.00;1.00;;;;;24.73;34.73;101523.19;5094589;28;46036;-72
2023/07/17 10:17:31;;;;;;;;;4.67;4.00;;;;;24.86;34.59;101512.91;5093756;28;44870;-72
2023/07/17 10:20:02;;;;;;;;;2.67;1.67;;;;;25.04;34.30;101528.94;5096187;28;45029;-72
2023/07/17 10:22:38;;;;;;;;;5.00;1.00;;;;;25.15;33.97;101525.97;5094619;28;45059;-71
2023/07/17 10:25:18;;;;;;;;;1.67;1.67;;;;;25.15;34.01;101518.66;5095608;27;45172;-69
2023/07/17 10:27:50;;;;;;;;;3.00;2.00;;;;;25.23;33.97;101523.03;5094289;28;45170;-69
2023/07/17 10:30:29;;;;;;;;;3.33;2.00;;;;;25.18;34.31;101524.06;5094749;28;45162;-68
2023/07/17 10:33:19;;;;;;;;;3.67;2.33;;;;;25.16;33.90;101525.03;5088379;28;44832;-68
2023/07/17 10:35:48;;;;;;;;;1.67;1.67;;;;;25.22;33.99;101526.72;5094750;28;46758;-70
2023/07/17 10:38:15;;;;;;;;;3.00;2.00;;;;;25.29;33.75;101522.94;5076187;28;45264;-69
2023/07/17 10:40:41;;;;;;;;;3.00;3.00;;;;;25.30;34.00;101503.78;5090683;28;45012;-70
2023/07/17 10:43:19;;;;;;;;;2.00;2.00;;;;;25.42;33.76;101529.06;5091980;28;45422;-71
2023/07/17 10:45:48;;;;;;;;;1.67;1.00;;;;;25.43;33.52;101523.53;5078066;28;46160;-73
2023/07/17 10:48:14;;;;;;;;;1.33;1.33;;;;;25.29;33.85;101517.47;5076724;28;45123;-69
2023/07/17 10:50:51;;;;;;;;;5.33;4.00;;;;;25.34;33.51;101526.47;5094426;28;45015;-71
2023/07/17 10:53:16;;;;;;;;;3.00;1.33;;;;;25.31;33.52;101526.53;5095433;28;45028;-69
2023/07/17 10:55:42;;;;;;;;;0.00;0.00;;;;;25.29;33.94;101529.34;5093561;28;47376;-72
2023/07/17 10:58:08;;;;;;;;;2.00;0.67;;;;;25.18;33.74;101529.53;5068125;28;45545;-70
2023/07/17 11:00:34;;;;;;;;;3.67;1.33;;;;;25.17;34.26;101537.78;5091500;28;45173;-71
2023/07/17 11:02:59;;;;;;;;;3.00;1.00;;;;;25.19;34.00;101525.88;5091655;28;45230;-71
2023/07/17 11:05:25;;;;;;;;;3.00;2.00;;;;;25.18;34.19;101518.59;5090369;28;45486;-73
2023/07/17 11:07:51;;;;;;;;;3.33;2.00;;;;;25.33;33.51;101533.78;5091678;28;45047;-73
2023/07/17 11:10:17;;;;;;;;;2.00;2.00;;;;;25.40;33.26;101539.13;5091839;28;45319;-72
2023/07/17 11:12:43;;;;;;;;;1.67;1.00;;;;;25.24;33.66;101527.59;5089510;28;45111;-71
2023/07/17 11:15:19;;;;;;;;;2.00;1.00;;;;;25.20;33.29;101544.06;5091238;28;45936;-71
2023/07/17 11:17:45;;;;;;;;;3.00;1.67;;;;;25.06;33.66;101524.31;5075464;28;45234;-70
2023/07/17 11:20:12;;;;;;;;;1.00;1.00;;;;;25.04;33.78;101523.44;5093955;28;45121;-72